Duluth International, MN

1:54 AM CST on November 29, 2014 (GMT -0600)
Duluth International | Change Station
CLOSE
Current Station
Airport
Location: Duluth,
Elevation: 1427 ft
Nearby Weather Stations

Elev 1427 ft 46.84 °N, 92.19 °W | Updated 29 minutes ago

Light Freezing Rain
Light Freezing Rain Mist
19 °F
Feels Like 11 °F
N
6
Wind Variable Wind from SE

Today
High -- | Low -- °F
--% Chance of Precip.
Yesterday
High -- | Low -- °F
Precip. -- in
7:30 AM 4:23 PM
Waxing Crescent, 49% visible
Pressure 29.62 in
Visibility 5.0 miles
Clouds Overcast 1100 ft
Windchill 11 °F
Dew Point 14 °F
Humidity 81%
Rainfall 0.00 in
Snow Depth Not available.
UV 0 out of 12
Pollen .10 out of 12
Air Quality Not available.
Flu Activity Not available.
SPECI KDLH 290725Z 14005KT 5SM -FZRA BR OVC011 M07/M10 A2962 RMK AO2 FZRAB19 P0000 I1000 T10721100

More Conditions Fewer Conditions

Pressure 29.62 in
Visibility 5.0 miles
Clouds Overcast 1100 ft
Windchill 11 °F
Dew Point 14 °F
Humidity 81%
Rainfall 0.00 in
Snow Depth Not available.
UV 0 out of 12
Pollen .10 out of 12
Air Quality Not available.
Flu Activity Not available.
SPECI KDLH 290725Z 14005KT 5SM -FZRA BR OVC011 M07/M10 A2962 RMK AO2 FZRAB19 P0000 I1000 T10721100

More Conditions Fewer Conditions

10-Day Weather Forecast

Almanac

Astronomy

Nov. 29, 2014 Rise Set
Actual Time
Civil Twilight
Nautical Twilight
Astronomical Twilight
Moon
Length of Visible Light
Length of Day
Tomorrow will be .
, % of the Moon is Illuminated

Today's Extremes

State Highs State Lows

Community

WunderPhotos

Upload Photos

1,774,432 photos uploaded!

WunderBlogs® & News

Nearby

Air Quality

  Air Quality AQ Index Pollutant
Not available.

Snow Depth

Station Depth Elevation

Earthquake Activity

City Distance Mag. Time & Date
Minimum magnitude displayed is 2.5.

Coastal Water Temperatures

Place Temperature

Nearby Weather Stations